Time;durP1;ratioP1;P1;durP2;ratioP2;P2;SDS_P1;SDS_P2;PMS_P1;PMS_P2;Temp;Humidity;BMP_temperature;BMP_pressure;BME280_temperature;BME280_humidity;BME280_pressure;Samples;Min_cycle;Max_cycle;Signal;HPM_P1;HPM_P2
2023/04/07 00:01:53;;;;;;;14.95;6.78;;;2.00;98.60;;;;;;20745492;28;20077;-51
2023/04/07 00:11:55;;;;;;;10.40;6.30;;;1.90;98.20;;;;;;20744581;28;20038;-52
2023/04/07 00:21:56;;;;;;;13.02;6.35;;;1.80;97.80;;;;;;20743042;28;20104;-48
2023/04/07 00:31:58;;;;;;;10.45;6.18;;;1.80;97.40;;;;;;20743286;28;20088;-50
2023/04/07 00:41:59;;;;;;;13.30;5.97;;;1.80;97.50;;;;;;20742523;28;20100;-47
2023/04/07 00:52:01;;;;;;;8.32;4.60;;;1.80;97.10;;;;;;20741168;28;20395;-58
2023/04/07 01:02:17;;;;;;;7.57;3.90;;;2.00;94.80;;;;;;20741056;28;20038;-51
2023/04/07 01:12:47;;;;;;;15.38;7.60;;;2.30;95.10;;;;;;20740031;28;20049;-48
2023/04/07 01:22:56;;;;;;;20.20;8.32;;;2.30;95.60;;;;;;20738562;28;20045;-57
2023/04/07 01:33:00;;;;;;;11.50;6.50;;;2.20;96.80;;;;;;20739797;28;20057;-48
2023/04/07 01:43:03;;;;;;;10.30;4.82;;;2.10;97.40;;;;;;20738919;28;20030;-51
2023/04/07 01:53:05;;;;;;;12.20;7.03;;;2.00;97.10;;;;;;20737351;28;20025;-51
2023/04/07 02:03:19;;;;;;;16.30;7.68;;;2.00;97.00;;;;;;20739717;28;20038;-47
2023/04/07 02:13:23;;;;;;;10.18;5.50;;;1.90;97.60;;;;;;20736023;28;20447;-52
2023/04/07 02:23:26;;;;;;;13.40;7.38;;;2.00;96.70;;;;;;20751381;28;20044;-48
2023/04/07 02:33:28;;;;;;;8.32;4.90;;;2.00;97.20;;;;;;20752262;28;20096;-48
2023/04/07 02:43:30;;;;;;;3.15;1.60;;;1.90;95.80;;;;;;20751989;28;20041;-52
2023/04/07 02:53:31;;;;;;;3.33;1.90;;;2.10;92.00;;;;;;20750828;28;20053;-49
2023/04/07 03:03:33;;;;;;;3.67;2.13;;;2.10;92.50;;;;;;20750256;28;20056;-51
2023/04/07 03:13:48;;;;;;;3.38;1.40;;;1.80;92.30;;;;;;20747353;28;20054;-51
2023/04/07 03:23:50;;;;;;;3.13;1.90;;;1.40;91.30;;;;;;20747864;28;20479;-50
2023/04/07 03:33:53;;;;;;;10.18;5.40;;;0.90;93.90;;;;;;20747544;28;20029;-50
2023/04/07 03:43:56;;;;;;;1.48;0.95;;;0.60;95.30;;;;;;20745726;28;20037;-49
2023/04/07 03:53:59;;;;;;;2.78;1.67;;;0.40;93.20;;;;;;20746191;28;20534;-50
2023/04/07 04:04:11;;;;;;;2.22;1.30;;;0.10;93.20;;;;;;20744257;28;20038;-49
2023/04/07 04:14:13;;;;;;;5.72;1.83;;;-0.30;93.70;;;;;;20743532;28;20183;-47
2023/04/07 04:24:17;;;;;;;5.28;2.17;;;-0.60;95.00;;;;;;20749658;28;20030;-50
2023/04/07 04:34:20;;;;;;;4.30;1.52;;;-0.80;94.60;;;;;;20710907;28;20403;-50
2023/04/07 04:44:24;;;;;;;3.40;1.90;;;-1.00;94.80;;;;;;20741128;28;20038;-49
2023/04/07 04:54:26;;;;;;;3.83;1.55;;;-1.20;95.10;;;;;;20740430;28;20045;-51
2023/04/07 05:04:28;;;;;;;3.53;1.55;;;-1.30;95.00;;;;;;20740178;28;20088;-50
2023/04/07 05:14:37;;;;;;;3.90;2.03;;;-1.20;94.90;;;;;;20738791;28;20042;-46
2023/04/07 05:24:41;;;;;;;5.30;2.08;;;-1.10;95.40;;;;;;20737603;28;20049;-58
2023/04/07 05:34:43;;;;;;;4.30;2.10;;;-1.10;95.50;;;;;;20730760;28;20042;-48
2023/04/07 05:44:45;;;;;;;4.90;2.53;;;-0.90;95.00;;;;;;20737074;28;20057;-57
2023/04/07 05:54:48;;;;;;;5.75;3.20;;;-0.80;96.00;;;;;;20737327;28;20095;-50
2023/04/07 06:04:51;;;;;;;8.20;4.55;;;-0.70;96.20;;;;;;20737092;28;20037;-51
2023/04/07 06:14:55;;;;;;;8.73;4.90;;;-0.30;97.10;;;;;;20733655;28;20054;-51
2023/04/07 06:24:57;;;;;;;8.10;4.07;;;0.20;96.40;;;;;;20719696;28;20179;-50
2023/04/07 06:34:59;;;;;;;10.15;5.40;;;0.60;95.70;;;;;;20739650;28;20041;-48
2023/04/07 06:45:01;;;;;;;12.93;5.57;;;1.00;96.30;;;;;;20734327;28;20549;-59
2023/04/07 06:55:03;;;;;;;11.00;6.75;;;2.50;96.80;;;;;;20745738;28;20092;-59
2023/04/07 07:05:05;;;;;;;11.27;6.82;;;4.10;94.00;;;;;;20750203;28;20037;-47
2023/04/07 07:15:07;;;;;;;10.65;7.05;;;6.20;94.20;;;;;;20748045;28;20045;-52
2023/04/07 07:25:10;;;;;;;12.23;8.07;;;8.20;90.20;;;;;;20746870;28;20053;-51
2023/04/07 07:35:11;;;;;;;11.50;7.15;;;9.30;90.00;;;;;;20748731;28;20038;-51
2023/04/07 07:45:13;;;;;;;12.93;7.82;;;8.90;90.20;;;;;;20738479;28;20065;-61
2023/04/07 07:55:15;;;;;;;13.20;7.63;;;8.90;87.10;;;;;;20739206;28;20096;-52
2023/04/07 08:05:16;;;;;;;10.73;6.85;;;9.20;87.10;;;;;;20745352;28;20088;-61
2023/04/07 08:15:18;;;;;;;11.50;8.00;;;10.50;87.30;;;;;;20744444;28;20096;-50
2023/04/07 08:25:20;;;;;;;11.32;8.23;;;10.90;85.90;;;;;;20743876;28;20107;-53
2023/04/07 08:35:22;;;;;;;15.40;9.73;;;11.30;84.10;;;;;;20743585;28;20068;-51
2023/04/07 08:45:25;;;;;;;15.77;9.98;;;10.70;85.40;;;;;;20742410;28;20038;-57
2023/04/07 08:55:26;;;;;;;20.98;11.18;;;9.80;85.20;;;;;;20741758;28;20453;-52
2023/04/07 09:05:29;;;;;;;16.70;10.25;;;9.10;88.00;;;;;;20738362;28;20084;-58
2023/04/07 09:15:31;;;;;;;15.38;11.13;;;9.00;88.30;;;;;;20739116;28;20038;-48
2023/04/07 09:25:33;;;;;;;15.80;11.05;;;9.40;87.20;;;;;;20738983;28;20038;-49
2023/04/07 09:35:52;;;;;;;16.80;11.85;;;10.10;87.60;;;;;;20738263;28;20084;-59
2023/04/07 09:46:07;;;;;;;21.15;12.38;;;11.00;82.80;;;;;;20738734;28;20029;-50
2023/04/07 09:56:15;;;;;;;19.33;12.18;;;11.50;87.20;;;;;;20738354;28;20033;-51
2023/04/07 10:06:17;;;;;;;19.85;12.95;;;11.50;82.30;;;;;;20723672;28;20041;-59
2023/04/07 10:16:19;;;;;;;20.08;12.48;;;11.50;86.10;;;;;;20737774;28;20082;-59
2023/04/07 10:26:25;;;;;;;18.55;12.13;;;11.50;84.50;;;;;;20742432;28;20529;-58
2023/04/07 10:36:28;;;;;;;22.58;13.27;;;10.90;84.80;;;;;;20752606;28;20073;-59
2023/04/07 10:46:45;;;;;;;21.92;13.52;;;10.30;85.00;;;;;;20752731;28;20447;-59
2023/04/07 10:57:02;;;;;;;20.55;13.10;;;10.10;85.50;;;;;;20750810;28;20037;-58
2023/04/07 11:07:04;;;;;;;22.30;13.00;;;9.90;87.00;;;;;;20750360;28;20064;-59
2023/04/07 11:17:13;;;;;;;25.50;13.90;;;9.90;87.50;;;;;;20748978;28;20042;-51
2023/04/07 11:27:15;;;;;;;23.08;14.23;;;9.80;84.20;;;;;;20748512;28;20041;-59
2023/04/07 11:37:27;;;;;;;20.88;13.55;;;9.60;87.50;;;;;;20747085;28;20038;-52
2023/04/07 11:47:36;;;;;;;21.80;12.90;;;9.70;86.40;;;;;;20747059;28;20042;-59
2023/04/07 11:57:38;;;;;;;24.77;14.50;;;9.60;87.50;;;;;;20746549;28;20072;-51
2023/04/07 12:07:52;;;;;;;26.88;14.85;;;9.30;89.60;;;;;;20743823;28;20037;-52
2023/04/07 12:17:54;;;;;;;23.40;15.05;;;9.00;90.10;;;;;;20740982;28;20053;-58
2023/04/07 12:27:55;;;;;;;23.48;14.60;;;8.90;90.40;;;;;;20743974;28;20484;-59
2023/04/07 12:37:57;;;;;;;22.92;14.55;;;8.60;91.20;;;;;;20743079;28;20030;-58
2023/04/07 12:47:59;;;;;;;29.38;15.98;;;8.80;90.30;;;;;;20742854;28;20046;-59
2023/04/07 12:58:01;;;;;;;25.73;14.80;;;9.30;90.10;;;;;;20741465;28;20104;-48
2023/04/07 13:08:04;;;;;;;22.90;14.48;;;9.80;88.00;;;;;;20739737;28;20177;-59
2023/04/07 13:18:06;;;;;;;27.20;15.10;;;9.70;88.90;;;;;;20740214;28;20050;-59
2023/04/07 13:28:07;;;;;;;22.52;14.88;;;9.40;88.60;;;;;;20739803;28;20038;-59
2023/04/07 13:38:09;;;;;;;29.15;15.73;;;9.00;87.30;;;;;;20739234;28;20092;-59
2023/04/07 13:48:12;;;;;;;29.50;15.40;;;8.70;89.90;;;;;;20739122;28;20145;-59
2023/04/07 13:58:14;;;;;;;26.55;15.57;;;8.70;90.20;;;;;;20738810;28;20084;-58
2023/04/07 14:08:17;;;;;;;26.10;15.77;;;9.20;89.30;;;;;;20751815;28;20030;-59
2023/04/07 14:18:19;;;;;;;26.45;15.57;;;9.90;89.00;;;;;;20753977;28;20419;-54
2023/04/07 14:28:21;;;;;;;27.35;15.73;;;10.50;88.50;;;;;;20753207;28;20434;-52
2023/04/07 14:38:24;;;;;;;30.60;15.95;;;10.30;86.00;;;;;;20752278;28;20306;-59
2023/04/07 14:48:26;;;;;;;25.15;16.20;;;10.50;88.80;;;;;;20753804;28;20360;-51
2023/04/07 14:58:27;;;;;;;26.63;15.00;;;10.60;87.30;;;;;;20750834;28;20041;-51
2023/04/07 15:08:29;;;;;;;24.98;15.80;;;9.90;87.30;;;;;;20750187;28;20058;-51
2023/04/07 15:18:30;;;;;;;22.88;14.40;;;9.70;85.30;;;;;;20748129;28;20119;-51
2023/04/07 15:28:32;;;;;;;22.92;13.70;;;9.30;84.70;;;;;;20748313;28;20041;-49
2023/04/07 15:38:35;;;;;;;20.65;12.95;;;8.50;86.90;;;;;;20747630;28;20087;-59
2023/04/07 15:48:36;;;;;;;20.75;11.88;;;7.80;88.50;;;;;;20747359;28;20033;-51
2023/04/07 15:58:38;;;;;;;18.00;10.18;;;7.20;88.50;;;;;;20746431;28;20034;-58
2023/04/07 16:08:39;;;;;;;18.13;10.20;;;6.60;87.50;;;;;;20745682;28;20030;-58
2023/04/07 16:18:42;;;;;;;15.73;9.38;;;6.00;87.70;;;;;;20744707;28;20042;-50
2023/04/07 16:28:43;;;;;;;18.85;9.88;;;5.20;90.10;;;;;;20743667;28;20029;-53
2023/04/07 16:38:45;;;;;;;21.80;10.90;;;4.80;90.80;;;;;;20741083;28;20479;-59
2023/04/07 16:48:47;;;;;;;22.00;11.27;;;4.30;91.40;;;;;;20742741;28;20038;-58
2023/04/07 16:58:49;;;;;;;21.50;11.07;;;3.90;92.50;;;;;;20741986;28;20038;-54
2023/04/07 17:08:50;;;;;;;19.77;10.25;;;3.40;94.30;;;;;;20741275;28;20034;-50
2023/04/07 17:18:52;;;;;;;18.85;10.32;;;2.90;94.70;;;;;;20740473;28;20052;-52
2023/04/07 17:28:53;;;;;;;18.05;8.77;;;2.40;95.30;;;;;;20739766;28;20030;-51
2023/04/07 17:38:55;;;;;;;14.48;7.30;;;2.00;95.70;;;;;;20735988;28;20156;-49
2023/04/07 17:48:57;;;;;;;13.27;6.47;;;1.60;96.80;;;;;;20739110;28;20092;-52
2023/04/07 17:59:00;;;;;;;16.55;7.50;;;1.30;97.60;;;;;;20738523;28;20096;-49
2023/04/07 18:09:03;;;;;;;14.65;6.88;;;1.00;98.40;;;;;;20738129;28;20080;-58
2023/04/07 18:19:05;;;;;;;10.30;5.95;;;0.80;99.00;;;;;;20737552;28;20042;-57
2023/04/07 18:29:07;;;;;;;12.02;6.78;;;0.60;99.50;;;;;;20735951;28;20044;-52
2023/04/07 18:39:09;;;;;;;12.38;6.53;;;0.40;99.90;;;;;;20735084;28;20533;-47
2023/04/07 18:49:11;;;;;;;14.30;7.22;;;0.20;99.90;;;;;;20746196;28;20130;-50
2023/04/07 18:59:13;;;;;;;15.63;7.32;;;0.00;99.90;;;;;;20750842;28;20060;-53
2023/04/07 19:09:15;;;;;;;16.85;8.23;;;0.00;99.90;;;;;;20748175;28;20034;-49
2023/04/07 19:19:17;;;;;;;21.90;9.38;;;-0.10;99.90;;;;;;20749555;28;20042;-48
2023/04/07 19:29:18;;;;;;;22.95;11.35;;;-0.20;99.90;;;;;;20748739;28;20034;-51
2023/04/07 19:39:20;;;;;;;23.25;10.65;;;-0.30;99.90;;;;;;20745596;28;20099;-57
2023/04/07 19:49:21;;;;;;;23.50;11.15;;;-0.40;99.90;;;;;;20747391;28;20042;-50
2023/04/07 19:59:23;;;;;;;22.88;11.98;;;-0.40;99.90;;;;;;20745464;28;20026;-52
2023/04/07 20:09:26;;;;;;;24.23;11.90;;;-0.40;99.90;;;;;;20745636;28;20034;-50
2023/04/07 20:19:31;;;;;;;24.27;11.75;;;-0.60;99.90;;;;;;20744614;28;20049;-51
2023/04/07 20:29:32;;;;;;;22.95;11.68;;;-0.70;99.90;;;;;;20744037;28;20038;-49
2023/04/07 20:39:34;;;;;;;27.55;12.68;;;-0.70;99.90;;;;;;20742894;28;20026;-47
2023/04/07 20:49:38;;;;;;;26.08;12.23;;;-0.70;99.90;;;;;;20742834;28;20037;-49
2023/04/07 20:59:39;;;;;;;23.63;11.68;;;-0.60;99.90;;;;;;20741839;28;20438;-51
2023/04/07 21:09:41;;;;;;;12.68;6.05;;;-0.60;99.90;;;;;;20740415;28;20041;-57
2023/04/07 21:19:43;;;;;;;14.93;6.97;;;-0.30;99.90;;;;;;20739113;28;20100;-58
2023/04/07 21:29:44;;;;;;;15.93;8.48;;;0.20;99.90;;;;;;20739706;28;20100;-58
2023/04/07 21:39:46;;;;;;;16.77;8.60;;;0.40;99.90;;;;;;20739216;28;20088;-50
2023/04/07 21:49:48;;;;;;;16.92;9.00;;;0.40;99.90;;;;;;20739380;28;20399;-52
2023/04/07 21:59:49;;;;;;;25.73;12.48;;;0.60;99.90;;;;;;20738668;28;20057;-51
2023/04/07 22:09:51;;;;;;;25.48;13.77;;;1.00;99.90;;;;;;20737000;28;20033;-49
2023/04/07 22:19:52;;;;;;;28.63;14.80;;;1.80;99.90;;;;;;20739109;28;20073;-57
2023/04/07 22:29:54;;;;;;;28.02;15.45;;;2.20;99.90;;;;;;20753453;28;20042;-48
2023/04/07 22:39:55;;;;;;;27.23;15.63;;;2.40;99.90;;;;;;20752530;28;20030;-49
2023/04/07 22:49:57;;;;;;;28.00;15.63;;;2.50;99.90;;;;;;20754132;28;20064;-50
2023/04/07 22:59:59;;;;;;;28.55;17.17;;;2.70;99.90;;;;;;20751140;28;20553;-48
2023/04/07 23:10:01;;;;;;;29.90;17.08;;;3.20;99.90;;;;;;20750466;28;20034;-51
2023/04/07 23:20:02;;;;;;;32.72;16.23;;;3.00;99.90;;;;;;20749334;28;20049;-47
2023/04/07 23:30:05;;;;;;;28.13;16.05;;;2.80;99.90;;;;;;20747589;28;20041;-47
2023/04/07 23:40:07;;;;;;;26.95;14.73;;;2.80;99.90;;;;;;20746938;28;20432;-49
2023/04/07 23:50:09;;;;;;;24.73;14.85;;;2.90;99.90;;;;;;20747517;28;20038;-49
